Time;durP1;ratioP1;P1;durP2;ratioP2;P2;SDS_P1;SDS_P2;PMS_P1;PMS_P2;Temp;Humidity;BMP_temperature;BMP_pressure;BME280_temperature;BME280_humidity;BME280_pressure;Samples;Min_cycle;Max_cycle;Signal;HPM_P1;HPM_P2
2022/10/21 00:00:55;;;;;;;4.47;2.17;;;;;;;11.42;36.11;101816.78;4963305;28;20031;-76
2022/10/21 00:03:21;;;;;;;16.60;1.65;;;;;;;11.40;35.99;101826.78;4963373;28;20031;-77
2022/10/21 00:05:48;;;;;;;5.38;1.92;;;;;;;11.35;36.08;101821.69;4955465;28;20035;-76
2022/10/21 00:08:15;;;;;;;10.82;1.58;;;;;;;11.45;36.54;101821.97;4950851;28;20038;-76
2022/10/21 00:10:40;;;;;;;5.53;1.65;;;;;;;11.34;35.82;101806.50;4946320;28;20027;-77
2022/10/21 00:13:06;;;;;;;12.40;2.08;;;;;;;11.43;36.10;101814.00;4932018;29;20036;-77
2022/10/21 00:15:31;;;;;;;4.63;2.60;;;;;;;11.41;36.04;101817.72;4931544;29;20071;-77
2022/10/21 00:17:57;;;;;;;112.20;7.93;;;;;;;11.35;36.38;101802.84;4931605;29;20051;-77
2022/10/21 00:20:22;;;;;;;8.35;1.73;;;;;;;11.40;36.79;101822.28;4931705;29;20083;-76
2022/10/21 00:22:47;;;;;;;9.05;1.95;;;;;;;11.16;36.96;101771.84;4930166;29;20376;-75
2022/10/21 00:25:13;;;;;;;10.25;2.05;;;;;;;11.38;36.99;101810.72;4931844;29;20515;-77
2022/10/21 00:27:38;;;;;;;13.80;2.00;;;;;;;11.04;37.50;101773.50;4931859;29;20058;-76
2022/10/21 00:30:06;;;;;;;20.52;2.28;;;;;;;11.19;37.85;101815.56;4931952;29;20035;-75
2022/10/21 00:32:31;;;;;;;12.80;2.08;;;;;;;11.11;37.48;101820.59;4931627;29;20469;-77
2022/10/21 00:34:57;;;;;;;6.78;2.30;;;;;;;11.13;37.82;101807.06;4931555;29;20032;-77
2022/10/21 00:37:22;;;;;;;8.57;1.70;;;;;;;11.10;38.10;101810.78;4931703;29;20416;-77
2022/10/21 00:39:48;;;;;;;2.80;1.65;;;;;;;11.03;38.41;101811.28;4931858;29;20488;-78
2022/10/21 00:42:17;;;;;;;11.50;1.67;;;;;;;10.98;38.33;101798.13;4931888;29;20040;-76
2022/10/21 00:44:43;;;;;;;82.32;6.10;;;;;;;11.05;38.97;101803.97;4931451;29;20019;-75
2022/10/21 00:47:21;;;;;;;18.83;2.80;;;;;;;11.05;38.47;101807.53;4931297;29;20091;-77
2022/10/21 00:50:03;;;;;;;12.27;2.08;;;;;;;11.01;38.83;101810.53;4931248;29;20028;-76
2022/10/21 00:52:30;;;;;;;;;;;;;;;11.02;38.92;101809.56;4932146;29;20040;-77
2022/10/21 00:54:59;;;;;;;34.60;3.42;;;;;;;10.95;38.78;101806.38;4931541;29;19966;-78
2022/10/21 00:57:26;;;;;;;13.35;2.25;;;;;;;10.91;39.35;101811.13;4931498;29;20051;-76
2022/10/21 00:59:58;;;;;;;21.02;1.75;;;;;;;10.74;38.92;101770.09;4931667;29;20040;-77
2022/10/21 01:02:24;;;;;;;6.13;1.90;;;;;;;10.79;39.18;101763.44;4931963;29;20400;-77
2022/10/21 01:04:56;;;;;;;15.02;2.17;;;;;;;11.12;39.23;101805.31;4931296;29;20027;-77
2022/10/21 01:07:22;;;;;;;;;;;;;;;11.15;39.11;101799.72;4932033;29;20051;-77
2022/10/21 01:09:48;;;;;;;13.60;1.85;;;;;;;11.04;39.55;101794.19;4932914;29;20367;-76
2022/10/21 01:12:25;;;;;;;92.93;8.43;;;;;;;11.00;39.71;101790.84;4939281;29;20119;-75
2022/10/21 01:15:00;;;;;;;7.57;2.17;;;;;;;11.02;39.38;101790.72;4945520;29;20495;-76
2022/10/21 01:17:35;;;;;;;22.65;2.58;;;;;;;11.13;39.30;101799.81;4945398;29;20116;-78
2022/10/21 01:20:48;;;;;;;11.45;2.70;;;;;;;11.00;39.65;101768.44;4934928;29;20511;-76
2022/10/21 01:23:38;;;;;;;17.42;3.58;;;;;;;11.28;39.37;101795.28;4894350;29;20029;-76
2022/10/21 01:26:22;;;;;;;5.60;2.65;;;;;;;11.35;39.38;101807.34;4894416;29;20123;-77
2022/10/21 01:29:12;;;;;;;10.75;2.13;;;;;;;11.42;39.13;101808.69;4894246;29;20040;-77
2022/10/21 01:31:40;;;;;;;540.28;38.50;;;;;;;11.18;39.72;101803.09;4894289;29;20424;-77
2022/10/21 01:34:25;;;;;;;31.08;3.13;;;;;;;11.04;39.80;101807.66;4894339;29;20607;-77
2022/10/21 01:37:01;;;;;;;189.95;15.35;;;;;;;11.14;39.55;101798.88;4898388;29;20037;-77
2022/10/21 01:39:26;;;;;;;267.95;22.15;;;;;;;11.23;39.19;101810.84;4896557;29;20043;-78
2022/10/21 01:42:04;;;;;;;12.88;2.20;;;;;;;11.18;38.99;101813.88;4894770;29;20033;-76
2022/10/21 01:44:32;;;;;;;19.85;2.72;;;;;;;11.06;40.04;101811.97;4894473;29;20045;-77
2022/10/21 01:47:01;;;;;;;300.80;19.23;;;;;;;10.85;39.85;101808.84;4894358;29;20477;-76
2022/10/21 01:49:31;;;;;;;12.90;2.30;;;;;;;10.92;39.79;101825.44;4894045;29;20052;-76
2022/10/21 01:51:58;;;;;;;10.00;2.60;;;;;;;10.87;39.82;101812.28;4893960;29;20359;-77
2022/10/21 01:54:30;;;;;;;6.97;2.30;;;;;;;10.88;40.06;101819.41;4893889;29;20077;-77
2022/10/21 01:56:58;;;;;;;55.10;5.22;;;;;;;10.76;40.03;101801.31;4908717;29;20489;-76
2022/10/21 01:59:27;;;;;;;7.05;2.65;;;;;;;10.82;40.52;101816.25;4934481;29;20020;-77
2022/10/21 02:01:55;;;;;;;4.15;1.90;;;;;;;10.77;40.47;101824.59;4934792;29;20035;-76
2022/10/21 02:04:22;;;;;;;7.75;2.35;;;;;;;10.77;40.47;101821.88;4934109;29;20031;-77
2022/10/21 02:06:47;;;;;;;8.75;1.90;;;;;;;10.66;40.60;101788.56;4934164;29;20070;-76
2022/10/21 02:09:13;;;;;;;10.93;1.83;;;;;;;10.73;40.73;101814.13;4933966;29;20028;-77
2022/10/21 02:11:42;;;;;;;11.77;2.53;;;;;;;10.70;40.69;101833.16;4932893;29;20067;-77
2022/10/21 02:14:13;;;;;;;4.20;2.33;;;;;;;10.88;40.58;101818.53;4933957;29;20028;-77
2022/10/21 02:16:40;;;;;;;6.60;2.30;;;;;;;10.90;40.69;101814.78;4934262;29;20111;-76
2022/10/21 02:19:17;;;;;;;230.10;20.02;;;;;;;10.98;40.65;101818.81;4934663;29;20032;-79
2022/10/21 02:21:45;;;;;;;80.13;6.55;;;;;;;10.93;40.55;101828.03;4935920;29;20071;-82
2022/10/21 02:24:26;;;;;;;12.65;2.45;;;;;;;10.91;40.38;101815.66;4935199;29;20403;-81
2022/10/21 02:26:52;;;;;;;19.50;3.03;;;;;;;10.99;40.29;101831.28;4959188;29;20020;-80
2022/10/21 02:29:22;;;;;;;15.57;2.70;;;;;;;10.95;40.64;101835.16;4959321;29;20060;-79
2022/10/21 02:32:18;;;;;;;9.75;2.88;;;;;;;10.78;40.63;101801.22;4950970;29;20035;-81
2022/10/21 02:35:12;;;;;;;3.42;1.92;;;;;;;11.05;40.58;101830.91;4934208;29;20039;-81
2022/10/21 02:37:50;;;;;;;3.75;2.03;;;;;;;10.99;40.44;101842.06;4934355;29;20087;-80
2022/10/21 02:40:37;;;;;;;8.65;2.08;;;;;;;11.01;40.45;101837.47;4934632;29;20699;-80
2022/10/21 02:43:14;;;;;;;15.65;2.40;;;;;;;11.00;40.34;101838.41;4940594;29;20038;-80
2022/10/21 02:45:40;;;;;;;152.05;12.40;;;;;;;10.99;40.70;101842.06;4942610;28;20030;-81
2022/10/21 02:48:05;;;;;;;18.05;2.13;;;;;;;10.89;40.56;101847.16;4938320;28;20035;-80
2022/10/21 02:50:31;;;;;;;3.45;1.88;;;;;;;11.03;40.81;101849.00;4941741;29;20042;-79
2022/10/21 02:52:56;;;;;;;3.72;1.50;;;;;;;10.93;40.27;101854.09;4952991;28;20415;-80
2022/10/21 02:55:22;;;;;;;6.20;2.30;;;;;;;10.93;40.18;101846.00;4951276;28;20043;-78
2022/10/21 02:57:47;;;;;;;9.40;2.40;;;;;;;10.92;40.21;101853.22;4933155;29;20195;-82
2022/10/21 03:00:13;;;;;;;10.15;2.75;;;;;;;10.68;40.07;101818.91;4933850;29;20024;-81
2022/10/21 03:02:40;;;;;;;16.45;2.20;;;;;;;10.76;40.45;101839.00;4949767;29;20094;-82
2022/10/21 03:05:07;;;;;;;3.65;2.10;;;;;;;10.87;40.61;101860.72;4946818;28;20039;-80
2022/10/21 03:07:33;;;;;;;9.75;3.00;;;;;;;10.83;40.50;101843.03;4949129;29;20077;-82
2022/10/21 03:09:59;;;;;;;33.70;2.97;;;;;;;10.87;40.54;101849.97;4944751;28;20031;-80
2022/10/21 03:12:24;;;;;;;293.13;19.75;;;;;;;10.88;40.44;101865.16;4941355;29;20028;-80
2022/10/21 03:14:50;;;;;;;12.85;2.35;;;;;;;10.74;40.20;101827.47;4947128;28;20027;-80
2022/10/21 03:17:15;;;;;;;9.38;2.75;;;;;;;10.75;40.55;101834.59;4952307;28;20042;-80
2022/10/21 03:19:40;;;;;;;12.48;2.53;;;;;;;10.78;40.87;101850.53;4952996;28;20027;-80
2022/10/21 03:22:06;;;;;;;7.53;2.20;;;;;;;10.73;40.36;101831.09;4952716;28;20034;-82
2022/10/21 03:24:31;;;;;;;71.03;5.43;;;;;;;10.70;40.54;101825.91;4952079;28;20041;-79
2022/10/21 03:26:57;;;;;;;12.63;2.80;;;;;;;10.58;40.02;101818.63;4952034;28;20553;-78
2022/10/21 03:29:22;;;;;;;10.02;2.03;;;;;;;10.67;40.75;101863.78;4952067;28;20026;-78
2022/10/21 03:31:48;;;;;;;12.15;3.05;;;;;;;10.60;40.46;101870.53;4950769;28;20038;-76
2022/10/21 03:34:13;;;;;;;16.27;3.13;;;;;;;10.49;40.54;101867.59;4952043;28;20033;-81
2022/10/21 03:36:38;;;;;;;9.32;2.80;;;;;;;10.42;40.86;101862.72;4936673;29;20069;-80
2022/10/21 03:39:04;;;;;;;89.53;7.68;;;;;;;10.36;41.18;101863.97;4966555;28;20094;-78
2022/10/21 03:41:29;;;;;;;12.88;3.97;;;;;;;10.04;41.15;101808.53;4976074;28;20055;-80
2022/10/21 03:43:55;;;;;;;7.95;3.05;;;;;;;10.26;41.14;101852.91;4976911;28;20042;-80
2022/10/21 03:46:20;;;;;;;10.23;3.40;;;;;;;10.12;41.40;101831.28;4957446;28;20070;-82
2022/10/21 03:48:45;;;;;;;14.85;4.18;;;;;;;10.05;41.77;101837.16;4951925;28;20122;-78
2022/10/21 03:51:11;;;;;;;8.93;3.08;;;;;;;10.15;41.95;101855.34;4951462;28;20034;-80
2022/10/21 03:53:37;;;;;;;3.63;2.67;;;;;;;10.06;42.03;101841.59;4933264;28;20032;-83
2022/10/21 03:56:03;;;;;;;382.75;27.77;;;;;;;10.18;41.96;101855.16;4933228;29;20467;-85
2022/10/21 03:58:28;;;;;;;11.77;4.15;;;;;;;10.20;42.03;101852.41;4932796;29;20032;-77
2022/10/21 04:00:54;;;;;;;15.85;3.40;;;;;;;10.27;41.79;101859.13;4931909;29;20044;-77
2022/10/21 04:03:20;;;;;;;261.70;19.15;;;;;;;10.20;42.10;101841.63;4931666;29;20031;-77
2022/10/21 04:05:45;;;;;;;124.70;10.35;;;;;;;10.37;41.92;101861.16;4932157;29;20410;-79
2022/10/21 04:08:11;;;;;;;87.85;6.15;;;;;;;10.41;41.04;101864.53;4932143;29;20046;-78
2022/10/21 04:10:36;;;;;;;35.65;4.38;;;;;;;10.36;41.33;101859.44;4932239;29;20103;-79
2022/10/21 04:13:02;;;;;;;24.08;5.45;;;;;;;10.39;41.53;101866.47;4932336;29;20099;-78
2022/10/21 04:15:27;;;;;;;44.60;5.90;;;;;;;10.35;41.73;101864.91;4931745;29;20039;-78
2022/10/21 04:17:53;;;;;;;29.20;4.65;;;;;;;10.38;42.04;101867.41;4932042;29;20435;-80
2022/10/21 04:20:18;;;;;;;38.15;5.40;;;;;;;10.34;41.80;101876.63;4931966;29;20042;-79
2022/10/21 04:22:44;;;;;;;38.95;4.70;;;;;;;10.31;41.94;101871.41;4930697;29;20040;-79
2022/10/21 04:25:09;;;;;;;33.15;4.90;;;;;;;10.07;42.09;101845.97;4932006;29;20493;-78
2022/10/21 04:27:35;;;;;;;25.65;4.82;;;;;;;10.27;42.22;101869.91;4932107;29;20026;-79
2022/10/21 04:30:00;;;;;;;377.08;26.58;;;;;;;10.32;41.92;101863.28;4932383;29;20495;-77
2022/10/21 04:32:26;;;;;;;150.18;11.35;;;;;;;10.37;41.87;101871.03;4938947;29;20036;-79
2022/10/21 04:34:51;;;;;;;67.22;7.70;;;;;;;10.44;42.22;101877.78;4934115;29;20043;-78
2022/10/21 04:37:16;;;;;;;406.30;27.10;;;;;;;10.46;42.17;101873.19;4933778;29;20119;-78
2022/10/21 04:39:42;;;;;;;55.20;6.18;;;;;;;10.28;42.04;101839.34;4933517;29;20550;-79
2022/10/21 04:42:08;;;;;;;399.25;31.75;;;;;;;10.54;42.48;101872.72;4932350;29;20028;-78
2022/10/21 04:44:33;;;;;;;867.75;74.13;;;;;;;10.56;42.28;101886.94;4935571;29;20032;-78
2022/10/21 04:46:59;;;;;;;119.47;8.98;;;;;;;10.55;41.76;101885.22;4936602;29;20114;-80
2022/10/21 04:49:24;;;;;;;61.17;6.93;;;;;;;10.56;41.71;101878.88;4935924;29;20039;-79
2022/10/21 04:51:50;;;;;;;200.07;16.05;;;;;;;10.57;41.73;101883.28;4938650;29;20035;-79
2022/10/21 04:54:15;;;;;;;18.70;4.38;;;;;;;10.54;42.09;101896.94;4958585;29;20047;-79
2022/10/21 04:56:41;;;;;;;39.95;5.07;;;;;;;10.43;41.97;101886.81;4951488;29;20083;-79
2022/10/21 04:59:07;;;;;;;17.10;4.32;;;;;;;10.49;41.92;101901.75;4940391;29;20047;-78
2022/10/21 05:01:33;;;;;;;100.80;10.27;;;;;;;10.49;42.31;101899.88;4938856;29;20023;-80
2022/10/21 05:03:58;;;;;;;42.33;6.18;;;;;;;10.50;42.24;101898.94;4936942;29;20036;-79
2022/10/21 05:06:23;;;;;;;183.60;17.17;;;;;;;10.47;42.44;101903.63;4935516;29;20051;-79
2022/10/21 05:08:49;;;;;;;59.53;6.80;;;;;;;10.28;42.29;101861.72;4935419;29;20063;-78
2022/10/21 05:11:14;;;;;;;75.78;6.80;;;;;;;10.51;42.31;101889.91;4935099;29;20110;-79
2022/10/21 05:13:40;;;;;;;185.85;12.38;;;;;;;10.55;42.23;101909.44;4935123;29;20028;-79
2022/10/21 05:16:06;;;;;;;179.98;13.20;;;;;;;10.42;42.37;101873.47;4934794;29;20035;-77
2022/10/21 05:18:31;;;;;;;47.22;6.90;;;;;;;10.68;41.94;101908.56;4935210;29;20279;-79
2022/10/21 05:20:57;;;;;;;38.70;7.90;;;;;;;10.71;41.94;101907.50;4934684;29;20423;-78
2022/10/21 05:23:24;;;;;;;375.02;42.83;;;;;;;10.59;43.13;101882.25;4933378;29;20619;-80
2022/10/21 05:25:50;;;;;;;86.35;10.48;;;;;;;10.85;43.68;101927.25;4934280;29;20519;-78
2022/10/21 05:28:16;;;;;;;251.73;19.58;;;;;;;10.88;44.54;101916.31;4934670;29;20615;-79
2022/10/21 05:30:42;;;;;;;38.35;6.50;;;;;;;10.98;45.17;101927.34;4934964;29;20059;-79
2022/10/21 05:33:07;;;;;;;847.05;68.20;;;;;;;10.90;44.66;101897.34;4934378;29;20177;-79
2022/10/21 05:35:33;;;;;;;900.35;66.60;;;;;;;11.18;44.18;101918.88;4934427;29;20031;-80
2022/10/21 05:37:58;;;;;;;37.47;5.95;;;;;;;10.48;44.21;101819.31;4934784;29;20028;-79
2022/10/21 05:40:24;;;;;;;30.25;5.57;;;;;;;11.12;43.60;101910.31;4939717;29;20039;-80
2022/10/21 05:42:49;;;;;;;26.80;4.03;;;;;;;11.29;42.11;101929.84;4953231;28;20034;-79
2022/10/21 05:45:15;;;;;;;36.25;12.13;;;;;;;11.23;41.57;101923.97;4952888;28;20039;-78
2022/10/21 05:47:40;;;;;;;107.10;36.05;;;;;;;11.21;41.33;101896.28;4952588;29;20031;-78
2022/10/21 05:50:08;;;;;;;4.68;2.80;;;;;;;11.29;41.36;101910.09;4952974;28;20031;-81
2022/10/21 05:52:33;;;;;;;10.18;3.63;;;;;;;11.47;41.17;101936.72;4952965;28;20027;-80
2022/10/21 05:54:59;;;;;;;28.13;5.95;;;;;;;11.47;41.21;101941.25;4952377;28;20062;-80
2022/10/21 05:57:24;;;;;;;34.88;4.60;;;;;;;11.50;41.22;101929.44;4953799;29;20043;-80
2022/10/21 05:59:50;;;;;;;49.28;4.13;;;;;;;11.63;41.17;101944.69;4966632;28;20124;-81
2022/10/21 06:02:15;;;;;;;1999.90;416.40;;;;;;;11.73;41.13;101948.56;4959168;28;20078;-77
2022/10/21 06:04:41;;;;;;;221.85;23.45;;;;;;;11.82;41.35;101950.66;4953332;28;20035;-78
2022/10/21 06:07:06;;;;;;;139.48;9.57;;;;;;;11.79;40.41;101918.50;4969057;28;20055;-78
2022/10/21 06:09:32;;;;;;;24.42;4.68;;;;;;;12.02;40.76;101937.72;4971732;28;20035;-78
2022/10/21 06:11:57;;;;;;;71.50;5.03;;;;;;;12.06;40.73;101950.00;4969266;28;20411;-79
2022/10/21 06:14:24;;;;;;;13.95;3.60;;;;;;;12.15;40.01;101939.47;4952356;29;20042;-77
2022/10/21 06:16:49;;;;;;;145.80;30.10;;;;;;;12.17;40.76;101925.88;4952057;28;20023;-79
2022/10/21 06:19:15;;;;;;;389.20;38.83;;;;;;;12.17;40.62;101918.63;4951867;29;20039;-80
2022/10/21 06:21:40;;;;;;;859.95;106.38;;;;;;;12.36;40.05;101937.13;4951921;28;20034;-80
2022/10/21 06:24:05;;;;;;;36.20;4.95;;;;;;;12.41;40.16;101949.38;4951387;29;20027;-79
2022/10/21 06:26:31;;;;;;;27.27;6.03;;;;;;;12.58;39.89;101950.91;4950487;29;20125;-78
2022/10/21 06:28:56;;;;;;;142.98;12.77;;;;;;;12.61;39.40;101948.00;4951946;28;20051;-78
2022/10/21 06:31:22;;;;;;;21.58;3.60;;;;;;;12.72;40.04;101934.59;4951548;28;20028;-79
2022/10/21 06:33:48;;;;;;;122.32;11.10;;;;;;;12.65;39.96;101906.34;4950480;29;20554;-78
2022/10/21 06:36:13;;;;;;;313.48;24.27;;;;;;;12.91;40.46;101937.75;4952121;28;20067;-80
2022/10/21 06:38:39;;;;;;;885.97;70.65;;;;;;;12.95;39.87;101939.28;4952360;28;20030;-79
2022/10/21 06:41:07;;;;;;;93.18;7.82;;;;;;;13.08;39.42;101936.63;4951368;28;20035;-78
2022/10/21 06:43:33;;;;;;;342.13;35.00;;;;;;;13.10;39.22;101937.34;4951982;28;20115;-78
2022/10/21 06:46:07;;;;;;;63.90;6.82;;;;;;;13.19;39.35;101925.03;4951749;29;20693;-79
2022/10/21 06:48:33;;;;;;;162.65;18.42;;;;;;;13.30;40.39;101922.44;4952849;28;20471;-79
2022/10/21 06:51:00;;;;;;;150.13;11.15;;;;;;;13.46;39.36;101936.53;4952659;29;20031;-85
2022/10/21 06:53:26;;;;;;;24.05;4.30;;;;;;;13.37;38.60;101899.38;4960507;28;20042;-89
2022/10/21 06:56:13;;;;;;;58.95;5.20;;;;;;;13.59;38.43;101935.56;4953762;29;20027;-89
2022/10/21 06:58:42;;;;;;;6.22;2.65;;;;;;;13.55;37.55;101930.47;4955507;28;20069;-85
2022/10/21 07:01:09;;;;;;;25.20;3.83;;;;;;;13.63;37.75;101941.59;4956188;28;20045;-86
2022/10/21 07:03:35;;;;;;;87.75;20.98;;;;;;;13.64;38.14;101940.59;4957665;28;20028;-90
2022/10/21 07:06:00;;;;;;;41.38;6.35;;;;;;;13.66;38.06;101945.91;4959480;28;20027;-86
2022/10/21 07:08:27;;;;;;;24.48;4.05;;;;;;;13.67;37.86;101934.97;4958292;29;20547;-88
2022/10/21 07:10:54;;;;;;;94.80;29.63;;;;;;;13.68;37.46;101920.50;4961610;28;20038;-87
2022/10/21 07:13:20;;;;;;;48.35;27.98;;;;;;;13.68;37.13;101936.72;4970488;28;20052;-87
2022/10/21 07:15:46;;;;;;;41.92;12.10;;;;;;;13.76;38.63;101934.28;4968721;28;20082;-83
2022/10/21 07:18:11;;;;;;;105.15;15.25;;;;;;;13.73;40.01;101933.69;4971178;28;20042;-85
2022/10/21 07:20:36;;;;;;;103.75;13.77;;;;;;;13.57;41.52;101923.13;4977267;28;20066;-83
2022/10/21 07:23:02;;;;;;;72.90;14.48;;;;;;;13.36;42.99;101935.50;4972593;28;20035;-80
2022/10/21 07:25:28;;;;;;;48.72;11.82;;;;;;;13.13;44.01;101928.16;4965588;29;20114;-78
2022/10/21 07:27:53;;;;;;;41.95;11.70;;;;;;;13.07;44.27;101924.91;4960577;28;20530;-79
2022/10/21 07:30:19;;;;;;;28.33;11.07;;;;;;;13.20;44.01;101945.69;4954214;28;20437;-79
2022/10/21 07:32:45;;;;;;;52.83;10.57;;;;;;;13.22;43.59;101941.88;4952390;28;20097;-79
2022/10/21 07:35:10;;;;;;;34.75;9.15;;;;;;;12.97;43.28;101918.41;4966833;28;20058;-79
2022/10/21 07:37:35;;;;;;;45.95;11.70;;;;;;;13.03;43.32;101944.13;4952344;28;20067;-81
2022/10/21 07:40:01;;;;;;;954.22;114.90;;;;;;;13.30;42.81;101944.06;4951677;28;20023;-79
2022/10/21 07:42:27;;;;;;;185.43;21.13;;;;;;;13.39;42.62;101946.09;4953853;28;20046;-87
2022/10/21 07:44:58;;;;;;;35.67;9.05;;;;;;;13.24;42.07;101920.19;4956754;28;20087;-83
2022/10/21 07:47:24;;;;;;;55.65;9.88;;;;;;;13.37;41.91;101921.88;4950911;29;20471;-84
2022/10/21 07:49:50;;;;;;;54.78;10.15;;;;;;;13.40;41.58;101942.41;4953860;29;20046;-87
2022/10/21 07:52:15;;;;;;;36.38;6.95;;;;;;;13.22;41.48;101917.56;4954576;29;20042;-81
2022/10/21 07:54:41;;;;;;;96.38;12.75;;;;;;;13.24;41.45;101895.84;4953032;29;20501;-82
2022/10/21 07:57:06;;;;;;;177.43;16.65;;;;;;;13.52;41.16;101936.97;4951289;28;20071;-82
2022/10/21 07:59:32;;;;;;;62.55;32.17;;;;;;;13.63;41.28;101944.31;4950194;29;20077;-82
2022/10/21 08:01:57;;;;;;;34.50;10.30;;;;;;;13.70;40.94;101931.22;4949419;29;20047;-83
2022/10/21 08:04:30;;;;;;;37.05;11.38;;;;;;;13.66;41.03;101944.09;4949576;29;20029;-85
2022/10/21 08:06:56;;;;;;;24.77;7.95;;;;;;;13.48;40.91;101903.03;4950036;29;20055;-82
2022/10/21 08:09:21;;;;;;;27.48;8.50;;;;;;;13.84;40.87;101939.16;4950468;29;20407;-87
2022/10/21 08:11:47;;;;;;;18.02;6.28;;;;;;;13.91;40.79;101952.09;4949268;29;20051;-81
2022/10/21 08:14:14;;;;;;;213.88;14.20;;;;;;;13.98;40.67;101906.50;4948853;29;20035;-78
2022/10/21 08:16:40;;;;;;;45.53;12.43;;;;;;;14.22;40.03;101926.28;4949501;29;20058;-83
2022/10/21 08:19:07;;;;;;;147.35;17.20;;;;;;;14.40;40.16;101905.13;4948182;28;20034;-79
2022/10/21 08:21:35;;;;;;;56.83;13.18;;;;;;;14.76;39.88;101932.06;4947668;29;20031;-82
2022/10/21 08:24:02;;;;;;;32.03;6.85;;;;;;;14.58;39.96;101901.00;4949890;29;20515;-81
2022/10/21 08:26:27;;;;;;;17.65;5.45;;;;;;;14.63;39.98;101915.03;4950742;29;20035;-77
2022/10/21 08:28:53;;;;;;;35.55;5.93;;;;;;;14.41;40.65;101901.44;4953122;29;20043;-81
2022/10/21 08:31:20;;;;;;;37.90;6.32;;;;;;;14.63;41.15;101904.22;4953350;29;20458;-84
2022/10/21 08:33:46;;;;;;;21.63;5.13;;;;;;;14.41;41.22;101874.34;4974802;28;20024;-84
2022/10/21 08:36:20;;;;;;;163.60;41.45;;;;;;;14.64;41.42;101900.53;4974103;28;20055;-81
2022/10/21 08:38:46;;;;;;;28.08;7.95;;;;;;;14.66;41.10;101896.72;4964078;28;20035;-81
2022/10/21 08:41:30;;;;;;;42.05;5.65;;;;;;;15.05;41.34;101936.03;4950939;29;20027;-80
2022/10/21 08:44:10;;;;;;;30.58;5.38;;;;;;;15.28;41.44;101936.94;4951992;28;20459;-83
2022/10/21 08:46:43;;;;;;;121.20;12.65;;;;;;;15.11;41.43;101894.91;4951253;28;20031;-83
2022/10/21 08:49:18;;;;;;;37.95;5.65;;;;;;;15.41;41.29;101928.66;4951823;29;20101;-84
2022/10/21 08:51:48;;;;;;;159.52;13.70;;;;;;;15.27;41.63;101878.25;4953013;28;20376;-81
2022/10/21 08:54:23;;;;;;;14.57;2.97;;;;;;;15.50;40.98;101890.00;4960541;28;20076;-83
2022/10/21 08:56:53;;;;;;;32.55;4.32;;;;;;;15.44;40.84;101901.31;4954092;28;20062;-81
2022/10/21 08:59:21;;;;;;;32.90;3.80;;;;;;;15.40;41.76;101929.66;4951014;28;20039;-83
2022/10/21 09:02:08;;;;;;;28.67;4.72;;;;;;;15.55;41.73;101928.44;4951411;28;20118;-86
2022/10/21 09:05:02;;;;;;;231.88;14.80;;;;;;;15.77;40.98;101922.97;4950164;28;20067;-81
2022/10/21 09:07:47;;;;;;;27.33;3.67;;;;;;;15.77;41.26;101915.72;4949879;29;20031;-82
2022/10/21 09:10:30;;;;;;;48.25;8.13;;;;;;;15.58;41.07;101882.06;4950187;29;20106;-81
2022/10/21 09:13:09;;;;;;;88.50;8.45;;;;;;;15.42;41.37;101887.00;4949864;29;20047;-82
2022/10/21 09:16:00;;;;;;;18.92;3.83;;;;;;;15.43;41.63;101913.13;4950564;28;20035;-81
2022/10/21 09:18:40;;;;;;;21.10;3.20;;;;;;;15.68;41.15;101913.75;4949640;28;20160;-81
2022/10/21 09:21:36;;;;;;;9.80;2.80;;;;;;;15.54;41.43;101915.84;4949867;29;20090;-81
2022/10/21 09:24:33;;;;;;;597.97;55.80;;;;;;;15.68;41.48;101907.47;4929665;29;20062;-81
2022/10/21 09:27:00;;;;;;;36.28;4.63;;;;;;;15.72;41.42;101914.34;4871573;29;20164;-80
2022/10/21 09:29:42;;;;;;;168.15;9.43;;;;;;;15.83;41.11;101908.91;4871728;29;20490;-82
2022/10/21 09:32:18;;;;;;;54.30;5.60;;;;;;;15.89;40.60;101891.25;4875370;29;20053;-83
2022/10/21 09:34:59;;;;;;;24.52;3.55;;;;;;;16.02;40.49;101887.38;4875554;29;20080;-83
2022/10/21 09:37:48;;;;;;;31.50;3.65;;;;;;;15.74;40.11;101850.00;4878536;29;20080;-82
2022/10/21 09:40:16;;;;;;;10.93;3.10;;;;;;;15.93;40.69;101909.84;4863465;29;20064;-80
2022/10/21 09:42:42;;;;;;;67.70;5.35;;;;;;;16.16;39.90;101908.78;4877020;29;20123;-81
2022/10/21 09:45:21;;;;;;;14.55;2.95;;;;;;;16.42;39.99;101905.72;4888502;29;20122;-83
2022/10/21 09:47:54;;;;;;;16.98;5.90;;;;;;;16.59;39.64;101897.00;4878792;29;20030;-82
2022/10/21 09:50:20;;;;;;;13.68;2.92;;;;;;;16.01;39.01;101798.81;4877108;29;20046;-81
2022/10/21 09:52:52;;;;;;;15.23;2.67;;;;;;;16.79;39.01;101891.53;4857626;29;20591;-83
2022/10/21 09:55:17;;;;;;;19.17;7.47;;;;;;;16.65;38.64;101886.47;4856733;29;20041;-84
2022/10/21 09:57:57;;;;;;;91.13;11.73;;;;;;;16.57;38.82;101886.28;4841966;29;20572;-83
2022/10/21 10:00:46;;;;;;;88.55;15.07;;;;;;;16.36;39.51;101857.38;4856826;29;20033;-85
2022/10/21 10:03:27;;;;;;;11.38;3.75;;;;;;;16.69;39.43;101882.50;4872471;29;20051;-85
2022/10/21 10:05:53;;;;;;;14.05;3.67;;;;;;;16.49;38.88;101858.88;4933865;29;20028;-82
2022/10/21 10:08:46;;;;;;;110.55;29.02;;;;;;;16.85;39.23;101876.56;4934624;29;20097;-78
2022/10/21 10:11:15;;;;;;;79.18;13.77;;;;;;;16.82;39.01;101876.81;4874394;29;20371;-80
2022/10/21 10:13:49;;;;;;;45.42;15.32;;;;;;;16.97;38.88;101880.91;4874115;29;20517;-79
2022/10/21 10:16:35;;;;;;;78.30;12.07;;;;;;;16.95;38.82;101844.84;4875431;29;20127;-83
2022/10/21 10:19:21;;;;;;;203.80;12.55;;;;;;;17.18;38.61;101876.31;4885447;29;20104;-87
2022/10/21 10:22:05;;;;;;;71.50;7.05;;;;;;;16.94;39.24;101875.75;4884107;29;20093;-86
2022/10/21 10:24:32;;;;;;;48.03;4.88;;;;;;;17.06;39.49;101861.09;4876148;29;20037;-79
2022/10/21 10:27:04;;;;;;;87.88;12.15;;;;;;;17.08;38.69;101867.25;4875147;29;20033;-81
2022/10/21 10:29:30;;;;;;;90.18;5.60;;;;;;;16.97;38.66;101867.31;4875294;29;21349;-81
2022/10/21 10:31:59;;;;;;;27.15;3.05;;;;;;;16.86;38.70;101867.41;4874849;29;20029;-80
2022/10/21 10:34:37;;;;;;;141.52;12.93;;;;;;;16.91;38.52;101832.53;4874556;29;20049;-80
2022/10/21 10:37:20;;;;;;;79.80;6.38;;;;;;;17.16;38.14;101842.94;4874866;29;20033;-80
2022/10/21 10:39:48;;;;;;;105.97;10.93;;;;;;;17.12;38.59;101849.66;4874545;29;20089;-80
2022/10/21 10:42:25;;;;;;;306.95;30.45;;;;;;;17.12;37.63;101846.97;4874331;29;20132;-81
2022/10/21 10:44:54;;;;;;;108.10;7.25;;;;;;;17.46;37.35;101844.75;4874391;29;20045;-81
2022/10/21 10:47:43;;;;;;;443.63;28.38;;;;;;;17.30;37.24;101823.53;4913997;29;20110;-81
2022/10/21 10:50:40;;;;;;;157.23;13.23;;;;;;;17.17;37.99;101835.66;4932012;29;20594;-81
2022/10/21 10:53:28;;;;;;;40.28;4.35;;;;;;;16.79;38.39;101817.31;4862285;29;20112;-80
2022/10/21 10:56:21;;;;;;;23.30;4.40;;;;;;;16.75;38.27;101794.16;4862270;29;20099;-80
2022/10/21 10:59:13;;;;;;;47.83;5.20;;;;;;;17.12;37.28;101833.38;4890922;29;20061;-80
2022/10/21 11:01:48;;;;;;;73.07;4.97;;;;;;;17.18;37.38;101826.50;4895357;29;20041;-79
2022/10/21 11:04:45;;;;;;;104.25;7.20;;;;;;;17.36;37.54;101836.59;4890310;29;20128;-81
2022/10/21 11:07:49;;;;;;;88.15;5.93;;;;;;;17.46;37.90;101838.47;4819044;29;20091;-80
2022/10/21 11:10:37;;;;;;;197.60;12.10;;;;;;;17.53;36.54;101823.28;4820449;29;20133;-79
2022/10/21 11:13:10;;;;;;;77.50;7.82;;;;;;;17.51;36.89;101836.19;4819326;29;20030;-81
2022/10/21 11:16:10;;;;;;;133.85;9.70;;;;;;;17.51;36.43;101831.59;4818280;29;20054;-79
2022/10/21 11:19:02;;;;;;;113.28;5.32;;;;;;;17.45;35.87;101826.72;4817508;29;20050;-79
2022/10/21 11:21:49;;;;;;;72.18;10.82;;;;;;;17.37;36.59;101832.84;4817332;29;20050;-77
2022/10/21 11:24:14;;;;;;;149.15;6.88;;;;;;;16.98;37.19;101833.72;4817097;29;20098;-79
2022/10/21 11:26:42;;;;;;;51.50;11.88;;;;;;;16.21;38.53;101806.09;4821721;29;20137;-76
2022/10/21 11:29:34;;;;;;;26.58;2.75;;;;;;;16.41;38.55;101830.66;4842139;29;20114;-78